Terminal Aerodrome Forecast
Issued by NWS Louisville, KY

Home | Current Version | Previous Version | Text Only | Print | Product List | Glossary On
Versions: 1 2 3 4 5 6 7 8 9 10 11 12 13 14 15 16 17 18 19 20 21
000
FTUS43 KLMK 172300
TAFSDF
TAF
KSDF 172332Z 1800/1906 31005KT P6SM BKN025
     FM180600 36003KT P6SM SCT010 BKN150
     FM181500 33004KT P6SM SCT015 OVC060=

USA.gov is the U.S. government's official web portal to all federal, state and local government web resources and services.